sensor_id;sensor_type;location;lat;lon;timestamp;pressure;altitude;pressure_sealevel;temperature;humidity
39729;BME280;25402;42.004;23.088;2023-11-18T00:00:29;96650.44;;;4.19;55.45
39729;BME280;25402;42.004;23.088;2023-11-18T00:02:56;96632.34;;;4.12;55.10
39729;BME280;25402;42.004;23.088;2023-11-18T00:05:24;96663.16;;;4.17;55.89
39729;BME280;25402;42.004;23.088;2023-11-18T00:07:51;96655.59;;;4.12;55.30
39729;BME280;25402;42.004;23.088;2023-11-18T00:10:18;96671.50;;;4.13;54.47
39729;BME280;25402;42.004;23.088;2023-11-18T00:12:46;96652.09;;;4.03;54.29
39729;BME280;25402;42.004;23.088;2023-11-18T00:15:13;96640.91;;;4.08;54.80
39729;BME280;25402;42.004;23.088;2023-11-18T00:17:40;96664.31;;;4.22;54.63
39729;BME280;25402;42.004;23.088;2023-11-18T00:20:08;96645.75;;;4.21;54.51
39729;BME280;25402;42.004;23.088;2023-11-18T00:22:37;96675.84;;;4.14;54.81
39729;BME280;25402;42.004;23.088;2023-11-18T00:25:06;96688.22;;;3.99;54.66
39729;BME280;25402;42.004;23.088;2023-11-18T00:27:33;96694.25;;;4.09;54.47
39729;BME280;25402;42.004;23.088;2023-11-18T00:30:04;96701.31;;;4.35;53.67
39729;BME280;25402;42.004;23.088;2023-11-18T00:32:33;96697.09;;;4.16;53.47
39729;BME280;25402;42.004;23.088;2023-11-18T00:35:01;96701.28;;;4.02;54.37
39729;BME280;25402;42.004;23.088;2023-11-18T00:37:30;96691.25;;;4.12;53.91
39729;BME280;25402;42.004;23.088;2023-11-18T00:39:57;96691.09;;;4.06;53.70
39729;BME280;25402;42.004;23.088;2023-11-18T00:42:24;96693.91;;;3.96;54.19
39729;BME280;25402;42.004;23.088;2023-11-18T00:44:52;96713.63;;;3.87;54.05
39729;BME280;25402;42.004;23.088;2023-11-18T00:47:22;96725.53;;;4.01;54.04
39729;BME280;25402;42.004;23.088;2023-11-18T00:49:49;96708.59;;;3.76;54.14
39729;BME280;25402;42.004;23.088;2023-11-18T00:52:18;96707.13;;;3.90;53.97
39729;BME280;25402;42.004;23.088;2023-11-18T00:54:45;96714.31;;;3.89;54.40
39729;BME280;25402;42.004;23.088;2023-11-18T00:57:12;96726.00;;;3.88;54.91
39729;BME280;25402;42.004;23.088;2023-11-18T00:59:42;96724.50;;;3.94;54.74
39729;BME280;25402;42.004;23.088;2023-11-18T01:02:09;96722.66;;;3.94;55.23
39729;BME280;25402;42.004;23.088;2023-11-18T01:04:38;96727.16;;;3.94;55.17
39729;BME280;25402;42.004;23.088;2023-11-18T01:07:05;96715.56;;;3.61;54.97
39729;BME280;25402;42.004;23.088;2023-11-18T01:09:32;96720.47;;;3.82;54.69
39729;BME280;25402;42.004;23.088;2023-11-18T01:12:05;96721.63;;;3.79;54.46
39729;BME280;25402;42.004;23.088;2023-11-18T01:14:35;96724.44;;;3.61;53.81
39729;BME280;25402;42.004;23.088;2023-11-18T01:17:03;96731.72;;;3.43;54.45
39729;BME280;25402;42.004;23.088;2023-11-18T01:19:31;96720.19;;;3.42;54.14
39729;BME280;25402;42.004;23.088;2023-11-18T01:22:00;96716.78;;;3.32;53.88
39729;BME280;25402;42.004;23.088;2023-11-18T01:24:30;96741.28;;;3.54;53.69
39729;BME280;25402;42.004;23.088;2023-11-18T01:26:58;96743.31;;;3.60;54.31
39729;BME280;25402;42.004;23.088;2023-11-18T01:29:25;96747.69;;;3.69;53.78
39729;BME280;25402;42.004;23.088;2023-11-18T01:31:52;96751.19;;;3.69;53.68
39729;BME280;25402;42.004;23.088;2023-11-18T01:34:21;96746.16;;;3.58;53.45
39729;BME280;25402;42.004;23.088;2023-11-18T01:36:48;96753.50;;;3.56;52.99
39729;BME280;25402;42.004;23.088;2023-11-18T01:39:17;96749.03;;;3.73;53.08
39729;BME280;25402;42.004;23.088;2023-11-18T01:41:44;96733.50;;;3.76;52.86
39729;BME280;25402;42.004;23.088;2023-11-18T01:44:12;96724.78;;;3.66;52.47
39729;BME280;25402;42.004;23.088;2023-11-18T01:46:41;96736.97;;;3.69;52.54
39729;BME280;25402;42.004;23.088;2023-11-18T01:49:11;96738.88;;;3.76;51.57
39729;BME280;25402;42.004;23.088;2023-11-18T01:51:40;96735.66;;;3.73;51.29
39729;BME280;25402;42.004;23.088;2023-11-18T01:54:08;96735.66;;;3.73;50.93
39729;BME280;25402;42.004;23.088;2023-11-18T01:56:42;96748.53;;;3.69;50.65
39729;BME280;25402;42.004;23.088;2023-11-18T01:59:10;96746.31;;;3.65;50.51
39729;BME280;25402;42.004;23.088;2023-11-18T02:01:46;96716.25;;;3.71;50.52
39729;BME280;25402;42.004;23.088;2023-11-18T02:04:14;96737.34;;;3.82;50.16
39729;BME280;25402;42.004;23.088;2023-11-18T02:06:41;96731.84;;;3.84;49.99
39729;BME280;25402;42.004;23.088;2023-11-18T02:09:10;96726.59;;;3.66;50.01
39729;BME280;25402;42.004;23.088;2023-11-18T02:11:43;96726.66;;;3.74;50.24
39729;BME280;25402;42.004;23.088;2023-11-18T02:14:14;96729.66;;;3.79;49.99
39729;BME280;25402;42.004;23.088;2023-11-18T02:16:43;96734.47;;;3.67;49.88
39729;BME280;25402;42.004;23.088;2023-11-18T02:19:19;96732.09;;;3.64;49.95
39729;BME280;25402;42.004;23.088;2023-11-18T02:21:46;96734.31;;;3.69;50.41
39729;BME280;25402;42.004;23.088;2023-11-18T02:24:25;96742.91;;;3.89;49.89
39729;BME280;25402;42.004;23.088;2023-11-18T02:26:53;96751.56;;;3.74;49.75
39729;BME280;25402;42.004;23.088;2023-11-18T02:29:21;96751.72;;;3.81;49.89
39729;BME280;25402;42.004;23.088;2023-11-18T02:31:52;96735.28;;;3.60;49.68
39729;BME280;25402;42.004;23.088;2023-11-18T02:34:26;96727.97;;;3.70;50.18
39729;BME280;25402;42.004;23.088;2023-11-18T02:36:54;96729.16;;;3.84;49.39
39729;BME280;25402;42.004;23.088;2023-11-18T02:39:29;96717.56;;;3.59;49.34
39729;BME280;25402;42.004;23.088;2023-11-18T02:41:59;96742.06;;;3.88;48.78
39729;BME280;25402;42.004;23.088;2023-11-18T02:44:29;96746.53;;;3.79;49.79
39729;BME280;25402;42.004;23.088;2023-11-18T02:46:58;96747.09;;;3.91;50.17
39729;BME280;25402;42.004;23.088;2023-11-18T02:49:25;96738.41;;;4.05;49.96
39729;BME280;25402;42.004;23.088;2023-11-18T02:51:53;96738.78;;;4.19;50.10
39729;BME280;25402;42.004;23.088;2023-11-18T02:54:21;96738.09;;;4.17;50.74
39729;BME280;25402;42.004;23.088;2023-11-18T02:56:48;96734.56;;;4.00;50.94
39729;BME280;25402;42.004;23.088;2023-11-18T02:59:16;96712.97;;;4.09;50.86
39729;BME280;25402;42.004;23.088;2023-11-18T03:01:43;96703.28;;;4.00;51.23
39729;BME280;25402;42.004;23.088;2023-11-18T03:04:11;96698.56;;;3.94;51.32
39729;BME280;25402;42.004;23.088;2023-11-18T03:06:39;96694.41;;;3.92;50.88
39729;BME280;25402;42.004;23.088;2023-11-18T03:09:07;96707.97;;;3.90;50.71
39729;BME280;25402;42.004;23.088;2023-11-18T03:11:35;96716.31;;;3.87;49.14
39729;BME280;25402;42.004;23.088;2023-11-18T03:14:03;96707.34;;;3.62;48.27
39729;BME280;25402;42.004;23.088;2023-11-18T03:16:37;96706.19;;;3.57;48.75
39729;BME280;25402;42.004;23.088;2023-11-18T03:19:04;96723.97;;;3.32;48.32
39729;BME280;25402;42.004;23.088;2023-11-18T03:21:32;96722.28;;;3.73;48.03
39729;BME280;25402;42.004;23.088;2023-11-18T03:23:59;96728.59;;;3.64;47.99
39729;BME280;25402;42.004;23.088;2023-11-18T03:26:26;96729.91;;;3.52;47.65
39729;BME280;25402;42.004;23.088;2023-11-18T03:28:53;96746.25;;;3.49;48.34
39729;BME280;25402;42.004;23.088;2023-11-18T03:31:20;96752.66;;;3.56;47.98
39729;BME280;25402;42.004;23.088;2023-11-18T03:33:49;96744.66;;;3.64;47.71
39729;BME280;25402;42.004;23.088;2023-11-18T03:36:16;96736.97;;;3.69;49.56
39729;BME280;25402;42.004;23.088;2023-11-18T03:38:43;96754.72;;;3.78;49.66
39729;BME280;25402;42.004;23.088;2023-11-18T03:41:11;96758.19;;;3.62;48.41
39729;BME280;25402;42.004;23.088;2023-11-18T03:43:38;96768.16;;;3.44;47.77
39729;BME280;25402;42.004;23.088;2023-11-18T03:46:05;96779.69;;;3.44;48.07
39729;BME280;25402;42.004;23.088;2023-11-18T03:48:33;96783.44;;;3.26;47.61
39729;BME280;25402;42.004;23.088;2023-11-18T03:51:02;96781.94;;;3.31;47.99
39729;BME280;25402;42.004;23.088;2023-11-18T03:53:30;96772.31;;;3.47;47.65
39729;BME280;25402;42.004;23.088;2023-11-18T03:55:59;96786.66;;;3.37;47.57
39729;BME280;25402;42.004;23.088;2023-11-18T03:58:26;96787.03;;;3.42;47.62
39729;BME280;25402;42.004;23.088;2023-11-18T04:00:53;96793.38;;;3.41;47.44
39729;BME280;25402;42.004;23.088;2023-11-18T04:03:20;96795.50;;;3.30;47.91
39729;BME280;25402;42.004;23.088;2023-11-18T04:05:47;96781.72;;;3.51;47.91
39729;BME280;25402;42.004;23.088;2023-11-18T04:08:16;96775.69;;;3.49;48.53
39729;BME280;25402;42.004;23.088;2023-11-18T04:10:43;96774.41;;;3.61;48.71
39729;BME280;25402;42.004;23.088;2023-11-18T04:13:10;96769.41;;;3.66;48.55
39729;BME280;25402;42.004;23.088;2023-11-18T04:15:36;96784.84;;;3.80;48.47
39729;BME280;25402;42.004;23.088;2023-11-18T04:18:04;96784.91;;;3.54;48.15
39729;BME280;25402;42.004;23.088;2023-11-18T04:20:32;96796.47;;;3.63;47.68
39729;BME280;25402;42.004;23.088;2023-11-18T04:22:58;96794.56;;;3.47;46.98
39729;BME280;25402;42.004;23.088;2023-11-18T04:25:27;96799.53;;;3.16;46.52
39729;BME280;25402;42.004;23.088;2023-11-18T04:27:54;96799.19;;;3.37;45.76
39729;BME280;25402;42.004;23.088;2023-11-18T04:30:21;96812.22;;;3.14;45.63
39729;BME280;25402;42.004;23.088;2023-11-18T04:32:48;96821.84;;;2.81;46.17
39729;BME280;25402;42.004;23.088;2023-11-18T04:35:17;96801.53;;;3.14;45.86
39729;BME280;25402;42.004;23.088;2023-11-18T04:37:44;96807.38;;;2.92;46.16
39729;BME280;25402;42.004;23.088;2023-11-18T04:40:11;96815.31;;;2.84;46.31
39729;BME280;25402;42.004;23.088;2023-11-18T04:42:40;96802.19;;;2.47;47.71
39729;BME280;25402;42.004;23.088;2023-11-18T04:45:08;96821.09;;;1.90;50.20
39729;BME280;25402;42.004;23.088;2023-11-18T04:47:36;96861.44;;;1.87;50.68
39729;BME280;25402;42.004;23.088;2023-11-18T04:50:04;96829.88;;;1.73;51.53
39729;BME280;25402;42.004;23.088;2023-11-18T04:52:31;96863.13;;;1.32;52.85
39729;BME280;25402;42.004;23.088;2023-11-18T04:55:00;96847.22;;;1.03;53.97
39729;BME280;25402;42.004;23.088;2023-11-18T04:57:27;96821.75;;;0.81;53.73
39729;BME280;25402;42.004;23.088;2023-11-18T04:59:56;96852.09;;;1.17;53.60
39729;BME280;25402;42.004;23.088;2023-11-18T05:02:23;96828.63;;;0.93;53.51
39729;BME280;25402;42.004;23.088;2023-11-18T05:04:50;96830.47;;;0.74;52.72
39729;BME280;25402;42.004;23.088;2023-11-18T05:07:17;96806.31;;;0.85;52.45
39729;BME280;25402;42.004;23.088;2023-11-18T05:09:44;96823.84;;;0.87;53.11
39729;BME280;25402;42.004;23.088;2023-11-18T05:12:11;96838.28;;;0.85;53.61
39729;BME280;25402;42.004;23.088;2023-11-18T05:14:38;96838.69;;;0.90;53.81
39729;BME280;25402;42.004;23.088;2023-11-18T05:17:06;96838.41;;;1.03;53.79
39729;BME280;25402;42.004;23.088;2023-11-18T05:19:34;96827.09;;;0.72;54.11
39729;BME280;25402;42.004;23.088;2023-11-18T05:22:01;96847.69;;;0.70;54.20
39729;BME280;25402;42.004;23.088;2023-11-18T05:24:28;96855.38;;;0.82;52.68
39729;BME280;25402;42.004;23.088;2023-11-18T05:26:54;96861.16;;;0.78;52.67
39729;BME280;25402;42.004;23.088;2023-11-18T05:29:21;96863.94;;;0.86;52.42
39729;BME280;25402;42.004;23.088;2023-11-18T05:31:51;96852.41;;;0.95;51.77
39729;BME280;25402;42.004;23.088;2023-11-18T05:34:22;96855.94;;;0.86;51.47
39729;BME280;25402;42.004;23.088;2023-11-18T05:36:49;96857.50;;;0.69;51.53
39729;BME280;25402;42.004;23.088;2023-11-18T05:39:20;96866.56;;;0.95;51.06
39729;BME280;25402;42.004;23.088;2023-11-18T05:41:47;96873.06;;;0.74;51.63
39729;BME280;25402;42.004;23.088;2023-11-18T05:44:15;96876.97;;;0.89;50.46
39729;BME280;25402;42.004;23.088;2023-11-18T05:46:45;96881.03;;;0.93;50.75
39729;BME280;25402;42.004;23.088;2023-11-18T05:49:13;96886.50;;;0.82;50.56
39729;BME280;25402;42.004;23.088;2023-11-18T05:51:41;96895.69;;;1.26;50.00
39729;BME280;25402;42.004;23.088;2023-11-18T05:54:08;96907.94;;;0.99;49.77
39729;BME280;25402;42.004;23.088;2023-11-18T05:56:35;96878.47;;;1.11;49.78
39729;BME280;25402;42.004;23.088;2023-11-18T05:59:03;96903.53;;;1.27;50.04
39729;BME280;25402;42.004;23.088;2023-11-18T06:01:30;96900.34;;;1.14;50.23
39729;BME280;25402;42.004;23.088;2023-11-18T06:03:57;96911.06;;;1.42;49.70
39729;BME280;25402;42.004;23.088;2023-11-18T06:06:24;96889.13;;;1.20;49.72
39729;BME280;25402;42.004;23.088;2023-11-18T06:08:53;96904.09;;;1.31;49.57
39729;BME280;25402;42.004;23.088;2023-11-18T06:11:20;96888.38;;;1.28;49.16
39729;BME280;25402;42.004;23.088;2023-11-18T06:13:50;96904.13;;;1.12;49.84
39729;BME280;25402;42.004;23.088;2023-11-18T06:16:20;96909.09;;;1.44;49.18
39729;BME280;25402;42.004;23.088;2023-11-18T06:18:48;96912.19;;;1.49;48.41
39729;BME280;25402;42.004;23.088;2023-11-18T06:21:16;96889.53;;;1.16;48.04
39729;BME280;25402;42.004;23.088;2023-11-18T06:23:44;96930.91;;;1.20;47.64
39729;BME280;25402;42.004;23.088;2023-11-18T06:26:14;96917.09;;;1.53;47.10
39729;BME280;25402;42.004;23.088;2023-11-18T06:28:42;96925.16;;;1.81;46.82
39729;BME280;25402;42.004;23.088;2023-11-18T06:31:10;96902.91;;;1.72;46.47
39729;BME280;25402;42.004;23.088;2023-11-18T06:33:38;96935.72;;;1.63;45.80
39729;BME280;25402;42.004;23.088;2023-11-18T06:36:08;96944.41;;;1.65;45.41
39729;BME280;25402;42.004;23.088;2023-11-18T06:38:37;96928.03;;;1.69;45.62
39729;BME280;25402;42.004;23.088;2023-11-18T06:41:04;96921.53;;;1.82;45.11
39729;BME280;25402;42.004;23.088;2023-11-18T06:43:37;96925.53;;;1.95;44.71
39729;BME280;25402;42.004;23.088;2023-11-18T06:46:18;96920.00;;;2.07;44.11
39729;BME280;25402;42.004;23.088;2023-11-18T06:48:47;96926.03;;;2.09;44.11
39729;BME280;25402;42.004;23.088;2023-11-18T06:51:15;96934.44;;;2.14;43.79
39729;BME280;25402;42.004;23.088;2023-11-18T06:53:42;96927.00;;;2.17;43.97
39729;BME280;25402;42.004;23.088;2023-11-18T06:56:10;96933.66;;;2.31;43.56
39729;BME280;25402;42.004;23.088;2023-11-18T06:58:39;96922.69;;;2.34;43.14
39729;BME280;25402;42.004;23.088;2023-11-18T07:01:08;96928.56;;;2.10;43.14
39729;BME280;25402;42.004;23.088;2023-11-18T07:03:35;96921.19;;;2.22;43.21
39729;BME280;25402;42.004;23.088;2023-11-18T07:06:03;96953.75;;;2.25;43.01
39729;BME280;25402;42.004;23.088;2023-11-18T07:08:31;96955.81;;;2.59;42.73
39729;BME280;25402;42.004;23.088;2023-11-18T07:10:58;96955.75;;;2.68;42.87
39729;BME280;25402;42.004;23.088;2023-11-18T07:13:26;96959.91;;;2.35;42.14
39729;BME280;25402;42.004;23.088;2023-11-18T07:15:55;96955.44;;;2.26;42.60
39729;BME280;25402;42.004;23.088;2023-11-18T07:18:23;96966.66;;;2.30;43.16
39729;BME280;25402;42.004;23.088;2023-11-18T07:20:50;96965.75;;;2.39;43.36
39729;BME280;25402;42.004;23.088;2023-11-18T07:23:18;96959.25;;;2.51;43.08
39729;BME280;25402;42.004;23.088;2023-11-18T07:25:45;96953.72;;;2.80;42.81
39729;BME280;25402;42.004;23.088;2023-11-18T07:28:12;96971.13;;;3.02;42.34
39729;BME280;25402;42.004;23.088;2023-11-18T07:30:41;96962.09;;;3.03;42.31
39729;BME280;25402;42.004;23.088;2023-11-18T07:33:09;96963.72;;;3.14;42.29
39729;BME280;25402;42.004;23.088;2023-11-18T07:35:36;96978.91;;;2.95;42.63
39729;BME280;25402;42.004;23.088;2023-11-18T07:38:03;96982.56;;;2.77;43.24
39729;BME280;25402;42.004;23.088;2023-11-18T07:40:33;96992.88;;;2.07;44.87
39729;BME280;25402;42.004;23.088;2023-11-18T07:43:00;96998.78;;;2.11;45.12
39729;BME280;25402;42.004;23.088;2023-11-18T07:45:28;96978.16;;;2.03;45.30
39729;BME280;25402;42.004;23.088;2023-11-18T07:47:55;96970.19;;;2.30;45.19
39729;BME280;25402;42.004;23.088;2023-11-18T07:50:23;96962.59;;;2.53;45.20
39729;BME280;25402;42.004;23.088;2023-11-18T07:52:50;96951.78;;;2.72;44.39
39729;BME280;25402;42.004;23.088;2023-11-18T07:55:17;96953.63;;;2.90;44.22
39729;BME280;25402;42.004;23.088;2023-11-18T07:57:45;96952.81;;;3.07;44.32
39729;BME280;25402;42.004;23.088;2023-11-18T08:00:14;96944.94;;;3.23;42.66
39729;BME280;25402;42.004;23.088;2023-11-18T08:02:41;96939.00;;;3.29;42.12
39729;BME280;25402;42.004;23.088;2023-11-18T08:11:49;96971.50;;;3.25;39.13
39729;BME280;25402;42.004;23.088;2023-11-18T08:14:16;96971.75;;;3.14;39.33
39729;BME280;25402;42.004;23.088;2023-11-18T08:16:43;96975.19;;;3.06;39.45
39729;BME280;25402;42.004;23.088;2023-11-18T08:19:10;96987.09;;;2.94;38.72
39729;BME280;25402;42.004;23.088;2023-11-18T08:21:37;96967.94;;;2.98;38.52
39729;BME280;25402;42.004;23.088;2023-11-18T08:24:06;96976.22;;;2.78;38.57
39729;BME280;25402;42.004;23.088;2023-11-18T08:26:33;96982.72;;;2.93;38.52
39729;BME280;25402;42.004;23.088;2023-11-18T08:29:02;96980.66;;;2.87;38.42
39729;BME280;25402;42.004;23.088;2023-11-18T08:31:29;97010.66;;;2.53;38.73
39729;BME280;25402;42.004;23.088;2023-11-18T08:33:58;96990.69;;;2.57;38.59
39729;BME280;25402;42.004;23.088;2023-11-18T08:36:25;96993.47;;;2.65;39.11
39729;BME280;25402;42.004;23.088;2023-11-18T08:38:53;97002.06;;;2.32;39.22
39729;BME280;25402;42.004;23.088;2023-11-18T08:41:23;96990.97;;;2.54;39.74
39729;BME280;25402;42.004;23.088;2023-11-18T08:43:50;97008.44;;;2.49;39.91
39729;BME280;25402;42.004;23.088;2023-11-18T08:46:20;97013.88;;;2.29;40.30
39729;BME280;25402;42.004;23.088;2023-11-18T08:48:47;97001.16;;;2.41;40.79
39729;BME280;25402;42.004;23.088;2023-11-18T08:51:14;97014.94;;;2.46;40.93
39729;BME280;25402;42.004;23.088;2023-11-18T08:53:42;97026.66;;;2.26;41.42
39729;BME280;25402;42.004;23.088;2023-11-18T08:56:11;97022.31;;;2.25;41.83
39729;BME280;25402;42.004;23.088;2023-11-18T08:58:41;97016.47;;;2.12;42.24
39729;BME280;25402;42.004;23.088;2023-11-18T09:01:10;97053.72;;;1.94;42.77
39729;BME280;25402;42.004;23.088;2023-11-18T09:03:41;97032.81;;;1.89;43.42
39729;BME280;25402;42.004;23.088;2023-11-18T09:06:14;97017.22;;;2.04;43.19
39729;BME280;25402;42.004;23.088;2023-11-18T09:08:51;97024.09;;;1.97;43.52
39729;BME280;25402;42.004;23.088;2023-11-18T09:11:20;97044.88;;;1.93;43.22
39729;BME280;25402;42.004;23.088;2023-11-18T09:13:48;97028.06;;;1.83;43.56
39729;BME280;25402;42.004;23.088;2023-11-18T09:16:19;97035.41;;;1.72;44.73
39729;BME280;25402;42.004;23.088;2023-11-18T09:18:49;97016.97;;;1.88;44.67
39729;BME280;25402;42.004;23.088;2023-11-18T09:21:16;97016.28;;;1.76;44.40
39729;BME280;25402;42.004;23.088;2023-11-18T09:23:48;97065.69;;;1.80;44.46
39729;BME280;25402;42.004;23.088;2023-11-18T09:26:15;97030.13;;;1.89;44.85
39729;BME280;25402;42.004;23.088;2023-11-18T09:28:42;97004.16;;;1.91;45.13
39729;BME280;25402;42.004;23.088;2023-11-18T09:31:10;97011.31;;;2.00;44.38
39729;BME280;25402;42.004;23.088;2023-11-18T09:33:39;97035.31;;;2.00;44.00
39729;BME280;25402;42.004;23.088;2023-11-18T09:36:12;97026.50;;;1.90;44.72
39729;BME280;25402;42.004;23.088;2023-11-18T09:38:40;97021.16;;;2.00;44.06
39729;BME280;25402;42.004;23.088;2023-11-18T09:41:10;97037.84;;;2.02;43.89
39729;BME280;25402;42.004;23.088;2023-11-18T09:43:41;97012.31;;;1.99;43.67
39729;BME280;25402;42.004;23.088;2023-11-18T09:46:12;96997.31;;;1.60;43.51
39729;BME280;25402;42.004;23.088;2023-11-18T09:48:43;97021.72;;;1.94;42.95
39729;BME280;25402;42.004;23.088;2023-11-18T09:51:19;97047.03;;;1.51;41.67
39729;BME280;25402;42.004;23.088;2023-11-18T09:53:49;97008.13;;;1.68;42.45
39729;BME280;25402;42.004;23.088;2023-11-18T09:56:21;97016.84;;;1.80;43.31
39729;BME280;25402;42.004;23.088;2023-11-18T09:59:02;97000.69;;;1.81;42.75
39729;BME280;25402;42.004;23.088;2023-11-18T10:01:37;97010.19;;;1.93;41.88
39729;BME280;25402;42.004;23.088;2023-11-18T10:04:05;97001.13;;;1.86;42.04
39729;BME280;25402;42.004;23.088;2023-11-18T10:06:36;96983.75;;;2.10;42.06
39729;BME280;25402;42.004;23.088;2023-11-18T10:09:06;97006.91;;;2.19;41.48
39729;BME280;25402;42.004;23.088;2023-11-18T10:11:42;96965.13;;;2.00;41.48
39729;BME280;25402;42.004;23.088;2023-11-18T10:14:13;96996.72;;;2.59;41.46
39729;BME280;25402;42.004;23.088;2023-11-18T10:16:42;96992.09;;;2.34;40.86
39729;BME280;25402;42.004;23.088;2023-11-18T10:19:12;96993.28;;;2.49;40.20
39729;BME280;25402;42.004;23.088;2023-11-18T10:21:41;96981.28;;;2.81;39.68
39729;BME280;25402;42.004;23.088;2023-11-18T10:24:08;96982.41;;;2.78;39.10
39729;BME280;25402;42.004;23.088;2023-11-18T10:26:41;96998.13;;;2.63;39.14
39729;BME280;25402;42.004;23.088;2023-11-18T10:29:10;96987.81;;;2.68;39.19
39729;BME280;25402;42.004;23.088;2023-11-18T10:31:38;96995.47;;;2.36;39.29
39729;BME280;25402;42.004;23.088;2023-11-18T10:34:11;96997.06;;;2.19;39.82
39729;BME280;25402;42.004;23.088;2023-11-18T10:36:58;96991.53;;;2.58;39.49
39729;BME280;25402;42.004;23.088;2023-11-18T10:39:29;96985.63;;;2.54;39.40
39729;BME280;25402;42.004;23.088;2023-11-18T10:41:59;96985.34;;;2.30;39.59
39729;BME280;25402;42.004;23.088;2023-11-18T10:44:27;96954.84;;;2.60;39.85
39729;BME280;25402;42.004;23.088;2023-11-18T10:46:55;96987.59;;;2.52;39.21
39729;BME280;25402;42.004;23.088;2023-11-18T10:49:24;96930.81;;;2.05;39.44
39729;BME280;25402;42.004;23.088;2023-11-18T10:51:52;96969.75;;;2.53;39.33
39729;BME280;25402;42.004;23.088;2023-11-18T10:54:20;96963.56;;;2.80;39.26
39729;BME280;25402;42.004;23.088;2023-11-18T10:56:48;96950.50;;;2.77;38.98
39729;BME280;25402;42.004;23.088;2023-11-18T10:59:16;96933.50;;;2.78;38.63
39729;BME280;25402;42.004;23.088;2023-11-18T11:01:44;96951.72;;;2.64;39.26
39729;BME280;25402;42.004;23.088;2023-11-18T11:04:15;96938.84;;;2.95;38.19
39729;BME280;25402;42.004;23.088;2023-11-18T11:06:47;96939.38;;;2.81;38.39
39729;BME280;25402;42.004;23.088;2023-11-18T11:09:20;96924.16;;;3.17;38.16
39729;BME280;25402;42.004;23.088;2023-11-18T11:11:53;96918.44;;;3.12;37.85
39729;BME280;25402;42.004;23.088;2023-11-18T11:14:21;96929.19;;;3.20;37.16
39729;BME280;25402;42.004;23.088;2023-11-18T11:16:53;96926.41;;;3.48;37.10
39729;BME280;25402;42.004;23.088;2023-11-18T11:19:25;96942.72;;;3.01;36.86
39729;BME280;25402;42.004;23.088;2023-11-18T11:22:00;96939.28;;;2.91;37.30
39729;BME280;25402;42.004;23.088;2023-11-18T11:24:40;96943.56;;;2.84;37.46
39729;BME280;25402;42.004;23.088;2023-11-18T11:27:20;96972.09;;;2.65;37.23
39729;BME280;25402;42.004;23.088;2023-11-18T11:29:59;96912.66;;;2.81;37.31
39729;BME280;25402;42.004;23.088;2023-11-18T11:32:39;96936.56;;;2.83;37.09
39729;BME280;25402;42.004;23.088;2023-11-18T11:35:19;96944.63;;;2.91;36.96
39729;BME280;25402;42.004;23.088;2023-11-18T11:37:48;96941.72;;;2.84;36.83
39729;BME280;25402;42.004;23.088;2023-11-18T11:40:18;96940.53;;;2.79;36.84
39729;BME280;25402;42.004;23.088;2023-11-18T11:42:50;96974.84;;;2.73;37.49
39729;BME280;25402;42.004;23.088;2023-11-18T11:45:22;96986.31;;;3.01;37.20
39729;BME280;25402;42.004;23.088;2023-11-18T11:47:54;96960.78;;;2.71;36.40
39729;BME280;25402;42.004;23.088;2023-11-18T11:50:45;96966.59;;;2.85;36.39
39729;BME280;25402;42.004;23.088;2023-11-18T11:53:21;96987.72;;;2.60;36.60
39729;BME280;25402;42.004;23.088;2023-11-18T11:55:52;96984.78;;;2.36;37.02
39729;BME280;25402;42.004;23.088;2023-11-18T12:05:09;96986.63;;;2.53;36.93
39729;BME280;25402;42.004;23.088;2023-11-18T12:07:44;96985.41;;;2.48;36.65
39729;BME280;25402;42.004;23.088;2023-11-18T12:10:12;96964.78;;;2.40;36.53
39729;BME280;25402;42.004;23.088;2023-11-18T12:12:48;96965.25;;;2.53;36.60
39729;BME280;25402;42.004;23.088;2023-11-18T12:15:49;96973.47;;;2.69;36.78
39729;BME280;25402;42.004;23.088;2023-11-18T12:18:20;96980.38;;;2.45;37.00
39729;BME280;25402;42.004;23.088;2023-11-18T12:20:47;96988.50;;;2.43;37.31
39729;BME280;25402;42.004;23.088;2023-11-18T12:23:19;96993.50;;;2.56;37.36
39729;BME280;25402;42.004;23.088;2023-11-18T12:25:49;96986.63;;;2.53;37.01
39729;BME280;25402;42.004;23.088;2023-11-18T12:28:25;96970.31;;;2.29;37.38
39729;BME280;25402;42.004;23.088;2023-11-18T12:30:53;96988.63;;;2.69;37.19
39729;BME280;25402;42.004;23.088;2023-11-18T12:33:22;96978.81;;;2.42;37.28
39729;BME280;25402;42.004;23.088;2023-11-18T12:39:20;96989.25;;;2.63;37.28
39729;BME280;25402;42.004;23.088;2023-11-18T12:42:02;96986.47;;;2.55;36.96
39729;BME280;25402;42.004;23.088;2023-11-18T12:44:37;96993.66;;;2.54;37.09
39729;BME280;25402;42.004;23.088;2023-11-18T12:47:08;97007.41;;;2.32;37.16
39729;BME280;25402;42.004;23.088;2023-11-18T12:49:44;96993.75;;;2.62;37.21
39729;BME280;25402;42.004;23.088;2023-11-18T12:52:16;96993.06;;;2.33;36.93
39729;BME280;25402;42.004;23.088;2023-11-18T12:54:44;96989.56;;;2.32;36.91
39729;BME280;25402;42.004;23.088;2023-11-18T12:57:16;96991.63;;;2.38;37.08
39729;BME280;25402;42.004;23.088;2023-11-18T12:59:44;97010.13;;;2.50;36.99
39729;BME280;25402;42.004;23.088;2023-11-18T13:02:12;97024.25;;;2.60;36.92
39729;BME280;25402;42.004;23.088;2023-11-18T13:04:45;97002.28;;;2.48;37.06
39729;BME280;25402;42.004;23.088;2023-11-18T13:07:13;97000.31;;;2.40;36.93
39729;BME280;25402;42.004;23.088;2023-11-18T13:09:43;96975.16;;;2.16;37.14
39729;BME280;25402;42.004;23.088;2023-11-18T13:12:12;97007.66;;;2.01;37.13
39729;BME280;25402;42.004;23.088;2023-11-18T13:14:42;97011.63;;;2.25;37.07
39729;BME280;25402;42.004;23.088;2023-11-18T13:17:11;97017.88;;;2.06;37.36
39729;BME280;25402;42.004;23.088;2023-11-18T13:19:39;97014.16;;;2.26;36.95
39729;BME280;25402;42.004;23.088;2023-11-18T13:22:07;97014.22;;;2.07;37.02
39729;BME280;25402;42.004;23.088;2023-11-18T13:24:34;97014.56;;;2.31;37.41
39729;BME280;25402;42.004;23.088;2023-11-18T13:27:02;97035.66;;;2.25;37.62